Time;durP1;ratioP1;P1;durP2;ratioP2;P2;SDS_P1;SDS_P2;PMS_P1;PMS_P2;Temp;Humidity;BMP_temperature;BMP_pressure;BME280_temperature;BME280_humidity;BME280_pressure;Samples;Min_cycle;Max_cycle;Signal;HPM_P1;HPM_P2
2023/01/29 00:01:46;;;;;;;19.60;11.43;;;5.90;65.80;;;;;;5102301;28;20031;-66
2023/01/29 00:04:12;;;;;;;20.83;11.80;;;5.90;65.90;;;;;;5112995;28;20034;-66
2023/01/29 00:06:39;;;;;;;20.97;12.37;;;5.90;65.90;;;;;;5110032;28;20031;-66
2023/01/29 00:09:05;;;;;;;20.03;11.60;;;5.80;65.80;;;;;;5103692;28;20011;-66
2023/01/29 00:11:30;;;;;;;19.20;11.93;;;5.80;65.90;;;;;;5103987;28;20325;-65
2023/01/29 00:13:57;;;;;;;21.00;12.43;;;5.80;65.80;;;;;;5112113;28;20032;-66
2023/01/29 00:16:23;;;;;;;19.47;11.50;;;5.80;65.80;;;;;;5114895;27;20424;-66
2023/01/29 00:18:48;;;;;;;19.27;11.70;;;5.80;65.80;;;;;;5113070;28;20118;-66
2023/01/29 00:21:18;;;;;;;19.07;11.37;;;5.80;65.80;;;;;;5120217;28;20031;-66
2023/01/29 00:23:44;;;;;;;18.83;11.43;;;5.80;65.80;;;;;;5118769;28;20070;-65
2023/01/29 00:26:10;;;;;;;21.43;11.57;;;5.80;65.80;;;;;;5118626;28;20352;-65
2023/01/29 00:28:39;;;;;;;20.90;12.07;;;5.80;65.80;;;;;;5119897;27;20016;-66
2023/01/29 00:31:10;;;;;;;20.03;11.70;;;5.80;65.80;;;;;;5130565;27;20035;-66
2023/01/29 00:33:36;;;;;;;22.27;11.77;;;5.90;65.90;;;;;;5118945;28;20072;-66
2023/01/29 00:36:08;;;;;;;20.30;12.47;;;5.80;65.80;;;;;;5119904;28;20027;-65
2023/01/29 00:38:35;;;;;;;21.00;11.23;;;5.80;65.80;;;;;;5115863;28;20031;-66
2023/01/29 00:46:38;;;;;;;23.10;11.17;;;5.80;65.80;;;;;;5120012;28;20360;-66
2023/01/29 00:49:05;;;;;;;19.40;11.40;;;5.80;65.80;;;;;;5110998;28;20356;-65
2023/01/29 00:51:31;;;;;;;19.53;11.07;;;5.80;65.80;;;;;;5119506;27;20011;-65
2023/01/29 00:53:57;;;;;;;20.50;11.37;;;5.70;65.80;;;;;;5114472;28;20046;-65
2023/01/29 00:56:24;;;;;;;21.10;11.23;;;5.70;65.80;;;;;;5119525;28;20459;-66
2023/01/29 00:58:50;;;;;;;20.57;11.40;;;5.70;65.90;;;;;;5115612;28;20080;-66
2023/01/29 01:01:16;;;;;;;21.07;11.93;;;5.70;66.00;;;;;;5120191;27;20393;-66
2023/01/29 01:03:41;;;;;;;18.80;11.33;;;5.70;66.00;;;;;;5119635;27;20024;-66
2023/01/29 01:06:09;;;;;;;19.47;11.97;;;5.80;66.00;;;;;;5116041;27;20032;-66
2023/01/29 01:11:20;;;;;;;21.50;12.50;;;5.70;65.90;;;;;;5106238;28;20032;-66
2023/01/29 01:13:46;;;;;;;21.20;12.40;;;5.70;65.90;;;;;;5102660;28;20020;-65
2023/01/29 01:16:13;;;;;;;20.70;12.43;;;5.70;65.90;;;;;;5118655;27;20348;-66
2023/01/29 01:18:39;;;;;;;22.27;12.90;;;5.70;66.00;;;;;;5109865;27;20108;-65
2023/01/29 01:21:05;;;;;;;20.40;11.93;;;5.70;66.00;;;;;;5116306;27;20035;-65
2023/01/29 01:23:31;;;;;;;19.30;11.77;;;5.60;65.90;;;;;;5119450;28;20035;-65
2023/01/29 01:25:57;;;;;;;21.63;12.40;;;5.60;66.00;;;;;;5111552;27;20037;-65
2023/01/29 01:28:23;;;;;;;23.27;12.63;;;5.60;66.00;;;;;;5110125;28;20026;-66
2023/01/29 01:30:49;;;;;;;21.77;12.47;;;5.70;66.10;;;;;;5115181;28;20020;-66
2023/01/29 01:33:15;;;;;;;21.83;12.37;;;5.60;66.00;;;;;;5098008;28;20054;-65
2023/01/29 01:35:41;;;;;;;21.03;11.70;;;5.60;66.10;;;;;;5109304;28;20043;-66
2023/01/29 01:38:07;;;;;;;21.93;13.00;;;5.60;66.10;;;;;;5105324;28;20028;-66
2023/01/29 01:40:32;;;;;;;25.17;13.73;;;5.60;66.10;;;;;;5113381;27;20020;-65
2023/01/29 01:42:59;;;;;;;26.17;13.40;;;5.60;66.10;;;;;;5116685;28;20451;-65
2023/01/29 01:45:30;;;;;;;19.60;12.13;;;5.60;66.10;;;;;;5101022;28;20043;-65
2023/01/29 01:48:01;;;;;;;23.60;13.63;;;5.60;66.10;;;;;;5107192;28;20044;-65
2023/01/29 01:50:52;;;;;;;20.80;12.43;;;5.60;66.10;;;;;;5114431;28;20376;-65
2023/01/29 01:53:25;;;;;;;22.07;12.93;;;5.60;66.20;;;;;;5111847;28;20475;-65
2023/01/29 01:56:05;;;;;;;21.87;12.50;;;5.50;66.20;;;;;;5114211;28;20039;-65
2023/01/29 01:58:37;;;;;;;23.57;13.57;;;5.60;66.30;;;;;;5113550;28;20038;-65
2023/01/29 02:01:05;;;;;;;21.57;12.53;;;5.50;66.20;;;;;;5103943;28;20058;-65
2023/01/29 02:11:56;;;;;;;20.10;12.18;;;5.50;66.30;;;;;;5114850;28;20038;-65
2023/01/29 02:14:24;;;;;;;20.87;12.23;;;5.40;66.30;;;;;;5116058;28;20383;-66
2023/01/29 02:16:50;;;;;;;22.50;13.17;;;5.50;66.30;;;;;;5112924;28;20042;-66
2023/01/29 02:19:40;;;;;;;22.10;12.77;;;5.50;66.30;;;;;;5101635;28;20020;-65
2023/01/29 02:22:06;;;;;;;25.57;13.57;;;5.40;66.20;;;;;;5083490;28;20047;-65
2023/01/29 02:24:52;;;;;;;22.00;12.37;;;5.40;66.30;;;;;;5116183;28;20517;-66
2023/01/29 02:27:51;;;;;;;22.97;13.53;;;5.40;66.30;;;;;;5113251;28;20110;-65
2023/01/29 02:30:35;;;;;;;21.23;12.20;;;5.40;66.40;;;;;;5089001;28;20112;-66
2023/01/29 02:33:31;;;;;;;22.43;12.50;;;5.40;66.40;;;;;;5113455;28;20035;-65
2023/01/29 02:36:03;;;;;;;21.53;12.83;;;5.40;66.90;;;;;;5113595;28;20051;-65
2023/01/29 02:38:44;;;;;;;24.37;12.83;;;5.30;66.50;;;;;;5113434;28;20199;-66
2023/01/29 02:41:27;;;;;;;21.77;13.10;;;5.40;66.50;;;;;;5114802;28;20080;-65
2023/01/29 02:44:05;;;;;;;22.73;13.30;;;5.40;66.40;;;;;;5099629;28;20032;-66
2023/01/29 02:46:41;;;;;;;21.40;12.87;;;5.30;66.40;;;;;;5111065;28;20074;-66
2023/01/29 02:49:16;;;;;;;22.17;13.43;;;5.40;66.40;;;;;;5099965;28;20063;-65
2023/01/29 02:51:50;;;;;;;21.43;13.07;;;5.30;66.40;;;;;;5111075;28;20126;-65
2023/01/29 02:54:27;;;;;;;22.97;13.60;;;5.30;66.40;;;;;;5114117;28;20027;-65
2023/01/29 02:57:03;;;;;;;22.43;13.57;;;5.30;66.40;;;;;;5111864;28;20417;-65
2023/01/29 02:59:51;;;;;;;22.43;13.13;;;5.30;66.50;;;;;;5097580;28;20068;-66
2023/01/29 03:02:25;;;;;;;22.67;13.87;;;5.30;66.50;;;;;;5096068;28;20119;-65
2023/01/29 03:05:01;;;;;;;24.33;14.33;;;5.30;66.50;;;;;;5112250;28;20038;-65
2023/01/29 03:07:41;;;;;;;22.90;13.10;;;5.30;66.50;;;;;;5114129;28;20023;-66
2023/01/29 03:10:22;;;;;;;23.35;13.00;;;5.30;66.60;;;;;;5106905;28;20015;-65
2023/01/29 03:13:00;;;;;;;23.17;13.67;;;5.30;66.50;;;;;;5112126;28;20460;-65
2023/01/29 03:15:41;;;;;;;24.10;13.10;;;5.30;66.60;;;;;;5108414;28;20030;-66
2023/01/29 03:18:40;;;;;;;22.80;12.60;;;5.30;66.60;;;;;;5109495;28;20363;-66
2023/01/29 03:32:23;;;;;;;23.33;14.20;;;5.30;66.60;;;;;;5113591;28;20027;-65
2023/01/29 03:34:59;;;;;;;23.40;13.17;;;5.20;66.60;;;;;;5094625;28;20026;-65
2023/01/29 03:37:36;;;;;;;22.83;13.10;;;5.20;66.60;;;;;;5113789;28;20046;-65
2023/01/29 03:40:06;;;;;;;23.60;13.73;;;5.30;66.70;;;;;;5087568;28;20016;-65
2023/01/29 03:43:07;;;;;;;21.87;12.93;;;5.30;66.70;;;;;;5106939;28;20032;-65
2023/01/29 03:45:43;;;;;;;23.03;13.47;;;5.30;66.70;;;;;;5098867;28;20035;-65
2023/01/29 03:48:30;;;;;;;22.47;13.77;;;5.30;66.70;;;;;;5110239;28;20133;-65
2023/01/29 03:51:24;;;;;;;22.20;13.40;;;5.30;66.70;;;;;;5106946;28;20444;-65
2023/01/29 03:53:55;;;;;;;25.63;14.23;;;5.30;66.70;;;;;;5100983;27;20468;-65
2023/01/29 03:56:38;;;;;;;26.43;13.83;;;5.30;66.70;;;;;;5113275;28;20020;-65
2023/01/29 03:59:36;;;;;;;24.23;14.57;;;5.30;66.80;;;;;;5112104;28;20677;-65
2023/01/29 04:02:34;;;;;;;24.37;13.80;;;5.20;66.70;;;;;;5117472;27;20032;-65
2023/01/29 04:05:10;;;;;;;23.83;13.57;;;5.20;66.70;;;;;;5110901;28;20035;-65
2023/01/29 04:07:50;;;;;;;21.95;13.85;;;5.30;66.90;;;;;;5113048;28;20028;-65
2023/01/29 04:10:20;;;;;;;23.83;14.00;;;5.30;66.90;;;;;;5110721;28;20022;-66
2023/01/29 04:12:53;;;;;;;23.70;14.07;;;5.20;66.80;;;;;;5092776;28;20111;-65
2023/01/29 04:15:22;;;;;;;22.17;13.60;;;5.30;66.90;;;;;;5099593;28;20024;-66
2023/01/29 04:17:51;;;;;;;26.07;14.57;;;5.30;66.90;;;;;;5104556;28;20337;-65
2023/01/29 04:20:28;;;;;;;23.17;14.83;;;5.30;66.90;;;;;;5089848;28;20078;-65
2023/01/29 04:22:54;;;;;;;24.20;13.87;;;5.30;66.80;;;;;;5096143;28;20032;-65
2023/01/29 04:25:27;;;;;;;25.00;13.73;;;5.30;66.80;;;;;;5111552;28;20052;-65
2023/01/29 04:28:12;;;;;;;20.93;12.93;;;5.30;66.90;;;;;;5109176;28;20118;-65
2023/01/29 04:30:51;;;;;;;23.20;14.47;;;5.30;66.90;;;;;;5110744;28;20024;-65
2023/01/29 04:33:28;;;;;;;24.43;14.37;;;5.30;66.90;;;;;;5100460;28;20038;-65
2023/01/29 04:36:05;;;;;;;22.90;13.33;;;5.30;66.90;;;;;;5104580;28;20036;-65
2023/01/29 04:38:46;;;;;;;21.37;13.33;;;5.30;66.90;;;;;;5101262;28;20028;-65
2023/01/29 04:41:44;;;;;;;22.60;13.93;;;5.30;66.80;;;;;;5109632;28;20024;-65
2023/01/29 04:44:20;;;;;;;25.77;14.13;;;5.30;66.90;;;;;;5107214;28;20135;-65
2023/01/29 04:47:07;;;;;;;26.60;15.23;;;5.30;66.90;;;;;;5103232;28;20032;-66
2023/01/29 04:49:53;;;;;;;24.80;14.90;;;5.30;66.80;;;;;;5111565;28;20034;-65
2023/01/29 04:52:37;;;;;;;24.73;13.90;;;5.30;66.80;;;;;;5112588;28;20031;-65
2023/01/29 04:55:29;;;;;;;24.97;14.30;;;5.40;66.90;;;;;;5112636;28;20378;-66
2023/01/29 04:58:11;;;;;;;24.50;13.73;;;5.30;66.80;;;;;;5104942;28;20039;-65
2023/01/29 05:00:43;;;;;;;23.90;13.97;;;5.30;66.90;;;;;;5113614;28;20352;-65
2023/01/29 05:03:13;;;;;;;23.83;14.23;;;5.30;66.90;;;;;;5115296;28;20026;-65
2023/01/29 05:05:41;;;;;;;25.77;14.50;;;5.30;66.90;;;;;;5116166;28;20080;-66
2023/01/29 05:08:10;;;;;;;26.53;15.20;;;5.30;66.90;;;;;;5114555;28;20084;-65
2023/01/29 05:10:37;;;;;;;23.47;15.10;;;5.30;67.00;;;;;;5112142;28;20369;-65
2023/01/29 05:13:09;;;;;;;26.03;14.40;;;5.30;67.00;;;;;;5121860;27;20443;-65
2023/01/29 05:15:39;;;;;;;24.47;14.67;;;5.30;67.00;;;;;;5112042;27;20024;-65
2023/01/29 05:18:07;;;;;;;26.03;14.47;;;5.30;67.00;;;;;;5103675;27;20181;-65
2023/01/29 05:20:38;;;;;;;25.43;14.80;;;5.30;67.00;;;;;;5107178;27;20028;-66
2023/01/29 05:23:04;;;;;;;25.17;13.73;;;5.30;67.00;;;;;;5106200;27;20111;-65
2023/01/29 05:25:32;;;;;;;25.23;14.70;;;5.30;67.00;;;;;;5099160;27;20021;-65
2023/01/29 05:28:12;;;;;;;24.97;14.03;;;5.30;67.00;;;;;;5105246;27;20115;-65
2023/01/29 05:30:39;;;;;;;25.00;14.93;;;5.30;67.10;;;;;;5100347;27;20027;-65
2023/01/29 05:33:14;;;;;;;26.40;15.60;;;5.30;67.10;;;;;;5109339;27;20162;-65
2023/01/29 05:35:40;;;;;;;24.13;14.17;;;5.30;67.10;;;;;;5101567;27;20630;-65
2023/01/29 05:38:06;;;;;;;26.70;15.37;;;5.30;67.00;;;;;;5105887;27;20114;-65
2023/01/29 05:40:32;;;;;;;26.07;15.77;;;5.30;67.10;;;;;;5099025;27;20106;-65
2023/01/29 05:42:58;;;;;;;27.73;15.97;;;5.30;67.10;;;;;;5106813;27;20426;-65
2023/01/29 05:45:24;;;;;;;25.77;15.43;;;5.30;67.20;;;;;;5113574;27;20427;-66
2023/01/29 05:47:49;;;;;;;27.43;15.67;;;5.30;67.20;;;;;;5125379;27;20036;-65
2023/01/29 05:50:16;;;;;;;27.33;15.43;;;5.30;67.20;;;;;;5116811;27;20094;-65
2023/01/29 05:52:41;;;;;;;25.37;14.97;;;5.30;67.20;;;;;;5117543;27;20072;-65
2023/01/29 05:55:09;;;;;;;25.37;15.77;;;5.20;67.20;;;;;;5115379;27;20432;-65
2023/01/29 05:57:35;;;;;;;28.20;16.03;;;5.20;67.20;;;;;;5119278;27;20313;-66
2023/01/29 06:00:00;;;;;;;25.17;15.07;;;5.30;67.30;;;;;;5110479;27;20019;-66
2023/01/29 06:02:30;;;;;;;27.00;15.80;;;5.20;67.30;;;;;;5118444;27;20373;-66
2023/01/29 06:04:55;;;;;;;26.17;14.50;;;5.30;67.40;;;;;;5111188;27;20402;-65
2023/01/29 06:07:21;;;;;;;26.23;16.03;;;5.30;67.40;;;;;;5104600;27;20020;-66
2023/01/29 06:09:47;;;;;;;26.40;16.20;;;5.20;67.40;;;;;;5099635;27;20103;-65
2023/01/29 06:12:13;;;;;;;26.67;16.13;;;5.30;67.50;;;;;;5102766;27;20433;-66
2023/01/29 06:14:39;;;;;;;27.07;16.40;;;5.20;67.40;;;;;;5104856;27;20393;-66
2023/01/29 06:17:05;;;;;;;27.70;16.60;;;5.30;67.50;;;;;;5102689;27;20091;-66
2023/01/29 06:19:30;;;;;;;29.90;16.87;;;5.30;67.60;;;;;;5104552;27;20031;-65
2023/01/29 06:21:56;;;;;;;27.07;16.57;;;5.30;68.20;;;;;;5114401;27;20040;-65
2023/01/29 06:24:22;;;;;;;26.70;16.57;;;5.30;67.50;;;;;;5115777;27;20024;-65
2023/01/29 06:26:48;;;;;;;27.67;16.57;;;5.30;67.40;;;;;;5103099;27;20414;-65
2023/01/29 06:29:13;;;;;;;27.70;16.63;;;5.30;67.50;;;;;;5085748;28;20494;-65
2023/01/29 06:31:39;;;;;;;25.47;15.87;;;5.30;67.40;;;;;;5100399;27;20441;-66
2023/01/29 06:34:06;;;;;;;25.70;15.93;;;5.30;67.40;;;;;;5101602;27;20028;-65
2023/01/29 06:36:32;;;;;;;28.97;17.33;;;5.30;67.40;;;;;;5108136;28;20023;-65
2023/01/29 06:38:58;;;;;;;27.17;15.90;;;5.30;67.40;;;;;;5110586;27;20084;-65
2023/01/29 06:41:24;;;;;;;29.73;16.70;;;5.30;67.40;;;;;;5112187;27;20035;-66
2023/01/29 06:43:50;;;;;;;26.40;15.73;;;5.30;67.40;;;;;;5110511;27;20020;-65
2023/01/29 06:46:16;;;;;;;27.60;16.57;;;5.30;67.40;;;;;;5092453;27;20028;-66
2023/01/29 06:48:42;;;;;;;28.73;16.23;;;5.30;67.40;;;;;;5112042;27;20038;-65
2023/01/29 06:51:09;;;;;;;26.47;16.40;;;5.30;67.40;;;;;;5110598;27;20030;-65
2023/01/29 06:53:36;;;;;;;29.50;16.00;;;5.30;67.40;;;;;;5112598;27;20132;-65
2023/01/29 06:56:03;;;;;;;28.67;16.73;;;5.30;67.40;;;;;;5107390;27;20479;-65
2023/01/29 06:58:30;;;;;;;26.90;16.67;;;5.30;67.40;;;;;;5113547;27;20023;-65
2023/01/29 07:01:10;;;;;;;26.73;16.47;;;5.30;67.50;;;;;;5081859;28;20356;-66
2023/01/29 07:03:36;;;;;;;29.67;16.80;;;5.30;67.40;;;;;;5112775;27;20035;-65
2023/01/29 07:06:03;;;;;;;25.53;15.87;;;5.30;67.40;;;;;;5113139;28;20124;-65
2023/01/29 07:08:29;;;;;;;27.30;15.73;;;5.30;67.40;;;;;;5115581;28;20034;-65
2023/01/29 07:11:01;;;;;;;30.23;16.13;;;5.30;67.40;;;;;;5112089;28;20023;-65
2023/01/29 07:13:27;;;;;;;27.13;15.60;;;5.30;67.40;;;;;;5105693;28;20020;-65
2023/01/29 07:15:53;;;;;;;24.70;15.20;;;5.30;67.40;;;;;;5111489;28;20016;-65
2023/01/29 07:18:19;;;;;;;28.07;15.83;;;5.30;67.40;;;;;;5095092;28;20468;-66
2023/01/29 07:20:45;;;;;;;26.63;16.07;;;5.30;67.40;;;;;;5109061;28;20094;-65
2023/01/29 07:23:14;;;;;;;27.63;16.83;;;5.30;67.40;;;;;;5106359;28;20027;-65
2023/01/29 07:25:40;;;;;;;28.37;14.90;;;5.40;67.40;;;;;;5104613;28;20034;-65
2023/01/29 07:28:06;;;;;;;30.10;17.17;;;5.40;67.30;;;;;;5104686;28;20416;-65
2023/01/29 07:30:32;;;;;;;26.73;15.43;;;5.40;67.40;;;;;;5113734;28;20080;-65
2023/01/29 07:33:02;;;;;;;26.37;15.07;;;5.40;67.40;;;;;;5101234;28;20080;-65
2023/01/29 07:35:27;;;;;;;27.40;15.63;;;5.40;67.40;;;;;;5107875;28;20023;-65
2023/01/29 07:37:53;;;;;;;28.67;16.70;;;5.40;67.30;;;;;;5107775;28;20106;-65
2023/01/29 07:40:19;;;;;;;27.97;15.70;;;5.50;67.30;;;;;;5113583;28;20019;-66
2023/01/29 07:42:45;;;;;;;27.73;15.77;;;5.50;67.20;;;;;;5111201;28;20472;-67
2023/01/29 07:45:11;;;;;;;27.27;16.47;;;5.50;67.20;;;;;;5108022;28;20099;-66
2023/01/29 07:47:37;;;;;;;28.03;16.57;;;5.50;67.10;;;;;;5106326;28;20099;-65
2023/01/29 07:50:04;;;;;;;28.33;15.77;;;5.50;67.10;;;;;;5112383;28;20024;-67
2023/01/29 07:52:32;;;;;;;25.90;15.93;;;5.50;67.10;;;;;;5111803;28;20015;-65
2023/01/29 07:54:57;;;;;;;26.20;15.87;;;5.50;67.20;;;;;;5094943;28;20115;-65
2023/01/29 07:57:23;;;;;;;28.27;16.23;;;5.50;67.10;;;;;;5107070;28;20170;-65
2023/01/29 07:59:49;;;;;;;27.50;16.23;;;5.60;67.20;;;;;;5108354;28;20079;-64
2023/01/29 08:02:15;;;;;;;26.23;16.13;;;5.60;67.10;;;;;;5109753;28;20135;-65
2023/01/29 08:04:41;;;;;;;28.50;16.47;;;5.60;67.10;;;;;;5108756;28;20732;-64
2023/01/29 08:07:08;;;;;;;26.13;15.83;;;5.60;67.00;;;;;;5108683;28;20063;-65
2023/01/29 08:09:35;;;;;;;27.73;16.70;;;5.60;67.00;;;;;;5110399;28;20038;-66
2023/01/29 08:12:00;;;;;;;28.60;17.13;;;5.60;66.90;;;;;;5110928;28;20111;-65
2023/01/29 08:14:26;;;;;;;26.07;15.87;;;5.60;66.90;;;;;;5108206;28;20169;-66
2023/01/29 08:16:52;;;;;;;27.80;16.73;;;5.60;66.80;;;;;;5106867;28;20325;-65
2023/01/29 08:19:18;;;;;;;29.33;17.30;;;5.60;66.80;;;;;;5104171;28;20028;-65
2023/01/29 08:21:44;;;;;;;27.13;16.27;;;5.60;66.90;;;;;;5106699;28;20078;-65
2023/01/29 08:24:09;;;;;;;26.83;16.57;;;5.70;66.90;;;;;;5106986;28;20035;-65
2023/01/29 08:26:35;;;;;;;26.60;15.73;;;5.70;66.90;;;;;;5105694;28;20045;-67
2023/01/29 08:29:01;;;;;;;26.33;15.57;;;5.70;66.90;;;;;;5101744;28;20522;-65
2023/01/29 08:31:26;;;;;;;28.33;16.43;;;5.70;66.80;;;;;;5109624;27;20099;-65
2023/01/29 08:33:54;;;;;;;28.23;16.50;;;5.80;66.80;;;;;;5121128;27;20059;-65
2023/01/29 08:36:20;;;;;;;26.67;15.27;;;5.80;66.70;;;;;;5100961;27;20020;-65
2023/01/29 08:38:45;;;;;;;27.57;17.10;;;5.80;66.70;;;;;;5115570;27;20107;-65
2023/01/29 08:41:11;;;;;;;25.47;15.87;;;5.80;66.60;;;;;;5101471;27;20135;-65
2023/01/29 08:43:37;;;;;;;26.20;15.97;;;5.80;66.50;;;;;;5114695;27;20118;-65
2023/01/29 08:46:04;;;;;;;26.67;15.30;;;5.80;66.50;;;;;;5104705;27;20082;-65
2023/01/29 08:48:30;;;;;;;25.73;15.23;;;5.90;66.50;;;;;;5108111;28;20112;-65
2023/01/29 08:50:58;;;;;;;26.03;15.40;;;5.90;66.40;;;;;;5111881;27;20039;-66
2023/01/29 08:53:24;;;;;;;26.50;14.77;;;5.90;66.40;;;;;;5109303;27;20086;-66
2023/01/29 08:55:51;;;;;;;25.90;16.03;;;5.90;66.30;;;;;;5096706;28;20360;-66
2023/01/29 08:58:17;;;;;;;26.07;15.77;;;6.00;66.40;;;;;;5107766;28;20063;-65
2023/01/29 09:00:42;;;;;;;27.93;14.90;;;6.00;66.30;;;;;;5112571;27;20055;-66
2023/01/29 09:03:08;;;;;;;25.93;15.70;;;6.00;66.30;;;;;;5109523;27;20103;-66
2023/01/29 09:05:36;;;;;;;27.43;16.17;;;6.00;66.20;;;;;;5112223;27;20505;-65
2023/01/29 09:08:02;;;;;;;23.80;15.30;;;6.00;66.20;;;;;;5113761;27;20364;-66
2023/01/29 09:10:28;;;;;;;23.77;14.53;;;6.10;66.20;;;;;;5094643;27;20567;-66
2023/01/29 09:12:53;;;;;;;22.80;14.23;;;6.10;66.10;;;;;;5115925;27;20107;-66
2023/01/29 09:15:19;;;;;;;25.53;14.53;;;6.10;66.00;;;;;;5113695;28;20042;-67
2023/01/29 09:17:45;;;;;;;22.17;14.13;;;6.10;65.90;;;;;;5109954;27;20023;-67
2023/01/29 09:20:11;;;;;;;22.57;14.20;;;6.10;65.90;;;;;;5102487;28;20467;-67
2023/01/29 09:22:37;;;;;;;23.60;14.40;;;6.10;65.70;;;;;;5113170;28;20035;-67
2023/01/29 09:25:03;;;;;;;24.17;14.30;;;6.20;65.70;;;;;;5112951;28;20036;-67
2023/01/29 09:27:29;;;;;;;24.57;14.40;;;6.20;65.60;;;;;;5116524;28;20151;-68
2023/01/29 09:29:54;;;;;;;22.93;14.10;;;6.20;65.60;;;;;;5112892;28;20027;-67
2023/01/29 09:32:20;;;;;;;24.57;14.67;;;6.20;65.60;;;;;;5116006;28;20501;-67
2023/01/29 09:34:46;;;;;;;22.67;13.63;;;6.20;65.50;;;;;;5106750;28;20084;-67
2023/01/29 09:37:11;;;;;;;25.90;15.07;;;6.20;65.50;;;;;;5114161;28;20019;-67
2023/01/29 09:39:37;;;;;;;22.47;13.90;;;6.20;65.50;;;;;;5112883;28;20077;-67
2023/01/29 09:42:33;;;;;;;22.80;14.00;;;6.20;65.50;;;;;;5112629;28;20393;-67
2023/01/29 09:45:07;;;;;;;22.07;13.17;;;6.20;65.40;;;;;;5111943;27;20130;-66
2023/01/29 09:47:35;;;;;;;23.37;14.33;;;6.20;65.40;;;;;;5114880;28;20063;-66
2023/01/29 09:50:21;;;;;;;21.93;13.40;;;6.20;65.40;;;;;;5113845;27;20024;-67
2023/01/29 09:53:20;;;;;;;22.83;13.97;;;6.20;65.30;;;;;;5115698;27;20050;-67
2023/01/29 09:56:00;;;;;;;24.53;14.73;;;6.20;65.30;;;;;;5129541;27;20412;-67
2023/01/29 09:58:35;;;;;;;21.03;12.50;;;6.30;65.40;;;;;;5099153;27;20126;-67
2023/01/29 10:01:21;;;;;;;23.80;13.60;;;6.30;65.30;;;;;;5111593;27;20187;-68
2023/01/29 10:04:09;;;;;;;21.20;13.30;;;6.30;65.30;;;;;;5119240;27;20059;-67
2023/01/29 10:07:09;;;;;;;20.60;12.80;;;6.30;65.30;;;;;;5096845;27;20371;-67
2023/01/29 10:10:02;;;;;;;24.67;14.03;;;6.30;65.20;;;;;;5112206;27;20107;-67
2023/01/29 10:13:05;;;;;;;21.87;12.83;;;6.30;65.20;;;;;;5113130;27;20505;-67
2023/01/29 10:15:46;;;;;;;23.03;13.30;;;6.40;65.20;;;;;;5111657;27;20039;-68
2023/01/29 10:18:33;;;;;;;21.50;13.10;;;6.40;65.10;;;;;;5112393;28;20388;-67
2023/01/29 10:21:16;;;;;;;21.73;12.63;;;6.40;65.10;;;;;;5112256;28;20356;-67
2023/01/29 10:23:50;;;;;;;24.27;13.17;;;6.40;65.10;;;;;;5112085;28;20057;-67
2023/01/29 10:26:22;;;;;;;20.30;12.27;;;6.40;65.10;;;;;;5091692;28;20020;-67
2023/01/29 10:28:49;;;;;;;;;;;6.40;65.10;;;;;;5113524;28;20028;-68
2023/01/29 10:31:23;;;;;;;18.67;10.93;;;6.40;65.10;;;;;;5109791;28;19908;-66
2023/01/29 10:33:55;;;;;;;19.13;12.53;;;6.40;65.00;;;;;;5111201;28;20034;-66
2023/01/29 10:36:32;;;;;;;20.97;12.63;;;6.40;65.00;;;;;;5113199;27;20317;-66
2023/01/29 10:38:58;;;;;;;21.07;12.70;;;6.40;65.00;;;;;;5113604;28;20026;-65
2023/01/29 10:41:51;;;;;;;19.93;12.30;;;6.50;65.00;;;;;;5110620;28;20430;-66
2023/01/29 10:44:32;;;;;;;19.73;12.77;;;6.50;65.00;;;;;;5107451;28;20418;-66
2023/01/29 10:46:58;;;;;;;23.00;12.70;;;6.50;65.00;;;;;;5101351;28;20057;-67
2023/01/29 10:50:01;;;;;;;22.40;13.17;;;6.40;64.90;;;;;;5114605;28;20457;-66
2023/01/29 10:52:32;;;;;;;19.50;12.20;;;6.40;64.80;;;;;;5106932;28;20027;-66
2023/01/29 10:55:04;;;;;;;22.08;12.32;;;6.40;64.80;;;;;;5108772;28;21494;-66
2023/01/29 10:57:29;;;;;;;20.77;12.25;;;6.40;64.80;;;;;;5110111;28;20104;-66
2023/01/29 11:00:22;;;;;;;18.40;12.80;;;6.40;64.80;;;;;;5111042;28;20039;-66
2023/01/29 11:02:50;;;;;;;21.53;13.40;;;6.40;64.80;;;;;;5112403;28;20360;-66
2023/01/29 11:05:26;;;;;;;18.53;12.17;;;6.40;64.70;;;;;;5114022;28;20030;-66
2023/01/29 11:08:15;;;;;;;19.23;12.43;;;6.40;64.70;;;;;;5114656;28;20027;-66
2023/01/29 11:11:08;;;;;;;18.83;11.20;;;6.50;64.70;;;;;;5098656;28;20084;-66
2023/01/29 11:13:43;;;;;;;21.00;12.50;;;6.50;64.60;;;;;;5106602;28;20043;-67
2023/01/29 11:16:09;;;;;;;18.57;11.93;;;6.40;64.50;;;;;;5095415;28;20085;-67
2023/01/29 11:19:08;;;;;;;20.23;12.00;;;6.40;64.50;;;;;;5101087;28;20024;-67
2023/01/29 11:21:55;;;;;;;21.87;12.13;;;6.40;64.50;;;;;;5069570;28;20122;-67
2023/01/29 11:24:20;;;;;;;20.20;12.30;;;6.50;64.40;;;;;;5112376;28;20027;-67
2023/01/29 11:26:48;;;;;;;21.07;12.53;;;6.40;64.40;;;;;;5111668;28;20031;-66
2023/01/29 11:29:41;;;;;;;18.63;12.20;;;6.50;64.40;;;;;;5112204;28;20088;-67
2023/01/29 11:32:24;;;;;;;19.13;11.77;;;6.50;64.30;;;;;;5113509;28;20114;-66
2023/01/29 11:34:57;;;;;;;18.40;12.33;;;6.50;64.20;;;;;;5113445;28;20337;-67
2023/01/29 11:37:34;;;;;;;18.27;11.80;;;6.60;64.20;;;;;;5107850;28;20035;-66
2023/01/29 11:40:00;;;;;;;22.67;12.50;;;6.60;64.10;;;;;;5096746;28;20040;-67
2023/01/29 11:42:30;;;;;;;24.27;12.77;;;6.60;64.10;;;;;;5103524;28;20089;-67
2023/01/29 11:44:56;;;;;;;19.73;12.10;;;6.60;64.00;;;;;;5113501;28;20031;-67
2023/01/29 11:47:26;;;;;;;19.90;12.53;;;6.70;64.10;;;;;;5112109;28;20047;-66
2023/01/29 11:49:54;;;;;;;19.53;12.77;;;6.60;64.00;;;;;;5106498;28;20140;-66
2023/01/29 11:52:24;;;;;;;20.00;12.77;;;6.70;64.00;;;;;;5100895;28;20106;-67
2023/01/29 11:55:01;;;;;;;22.83;13.70;;;6.70;63.90;;;;;;5110810;28;20036;-67
2023/01/29 11:57:28;;;;;;;21.60;12.50;;;6.70;63.90;;;;;;5114086;28;20034;-67
2023/01/29 12:00:01;;;;;;;19.87;13.03;;;6.70;63.90;;;;;;5104693;28;20024;-66
2023/01/29 12:02:53;;;;;;;18.85;12.00;;;6.80;63.90;;;;;;5105518;28;20100;-67
2023/01/29 12:05:22;;;;;;;19.13;12.13;;;6.70;63.80;;;;;;5090297;28;20122;-67
2023/01/29 12:07:50;;;;;;;20.77;12.17;;;6.80;63.90;;;;;;5113509;28;20027;-67
2023/01/29 12:10:46;;;;;;;19.83;13.17;;;6.80;63.90;;;;;;5109491;27;20589;-67
2023/01/29 12:13:14;;;;;;;22.17;12.53;;;6.80;63.80;;;;;;5091201;28;20034;-67
2023/01/29 12:15:41;;;;;;;20.10;13.00;;;6.80;64.00;;;;;;5114516;28;20035;-67
2023/01/29 12:18:30;;;;;;;18.13;11.87;;;6.80;64.00;;;;;;5104013;28;20062;-67
2023/01/29 12:21:03;;;;;;;19.00;12.47;;;6.80;64.00;;;;;;5105220;28;20034;-67
2023/01/29 12:23:42;;;;;;;21.83;13.57;;;6.80;64.00;;;;;;5107046;28;20042;-66
2023/01/29 12:26:15;;;;;;;20.80;13.03;;;6.80;64.00;;;;;;5109630;28;20110;-66
2023/01/29 12:29:02;;;;;;;21.20;15.30;;;6.80;64.00;;;;;;5111447;28;20043;-67
2023/01/29 12:31:40;;;;;;;18.83;12.53;;;6.80;64.00;;;;;;5101980;28;20515;-65
2023/01/29 12:34:16;;;;;;;20.87;12.80;;;6.90;64.10;;;;;;5112736;28;20081;-66
2023/01/29 12:36:54;;;;;;;19.80;12.97;;;6.90;64.10;;;;;;5113698;28;20042;-66
2023/01/29 12:39:20;;;;;;;20.00;13.77;;;6.90;64.20;;;;;;5100710;28;20483;-66
2023/01/29 12:41:51;;;;;;;19.37;13.50;;;6.90;64.10;;;;;;5113416;28;20088;-66
2023/01/29 12:44:22;;;;;;;25.55;15.60;;;6.90;64.10;;;;;;5111302;28;20039;-66
2023/01/29 12:46:55;;;;;;;24.88;14.93;;;6.90;64.00;;;;;;5109085;28;20036;-65
2023/01/29 12:49:32;;;;;;;20.80;14.27;;;6.90;64.10;;;;;;5103846;28;20386;-66
2023/01/29 12:52:12;;;;;;;21.27;13.67;;;6.90;64.10;;;;;;5089869;28;20020;-66
2023/01/29 12:54:59;;;;;;;22.63;14.57;;;6.90;64.10;;;;;;5107095;28;20099;-66
2023/01/29 12:58:01;;;;;;;23.30;14.23;;;6.90;64.10;;;;;;5113175;28;20020;-66
2023/01/29 13:00:35;;;;;;;21.65;14.52;;;6.90;64.20;;;;;;5073845;28;20071;-66
2023/01/29 13:03:29;;;;;;;23.17;14.50;;;6.90;64.20;;;;;;5106495;28;20027;-66
2023/01/29 13:06:18;;;;;;;24.47;15.33;;;6.90;64.20;;;;;;5105052;28;20130;-66
2023/01/29 13:09:05;;;;;;;22.97;14.17;;;6.90;64.30;;;;;;5111858;28;20035;-66
2023/01/29 13:11:39;;;;;;;22.10;13.43;;;6.90;64.30;;;;;;5103833;28;20047;-66
2023/01/29 13:14:16;;;;;;;24.60;14.97;;;6.90;64.40;;;;;;5112110;28;20019;-66
2023/01/29 13:16:47;;;;;;;21.77;14.37;;;6.90;64.40;;;;;;5113574;28;20031;-66
2023/01/29 13:19:31;;;;;;;22.92;14.95;;;7.00;64.60;;;;;;5107347;28;20110;-66
2023/01/29 13:22:00;;;;;;;21.97;14.70;;;6.90;64.60;;;;;;5089770;28;20088;-66
2023/01/29 13:24:34;;;;;;;22.30;15.10;;;6.90;64.60;;;;;;5111949;28;20547;-66
2023/01/29 13:27:00;;;;;;;23.63;15.27;;;7.00;64.70;;;;;;5090091;28;20036;-66
2023/01/29 13:29:28;;;;;;;23.37;15.13;;;7.00;64.70;;;;;;5110472;27;20333;-66
2023/01/29 13:31:57;;;;;;;27.17;16.23;;;7.00;64.70;;;;;;5106350;28;20028;-66
2023/01/29 13:34:27;;;;;;;21.88;15.38;;;6.90;64.70;;;;;;5113422;28;20039;-66